English version (google)  Retour à l'accueil Ecrire à l'auteur du site Runraid : Michel Jourdan


 Visitez La Boutique 



Les prochaines courses


Les derniers résultats

cliquez pour visualiser la page complète relatant la chronologie des éruptions du Piton de la Fournaise
éruptions Piton de la Fournaise


Ile de La Réunion

 Diagonale des Fous 

Ecrire au créateur du site : Michel Jourdan
Contact


2021-07-24 - MXSKY Montreux Trail Festival

Pour consulter le palmarès d'un coureur, un clic sur son nom !

Vous avez des remarques, corrections, ... sur ces résultats , un clic sur --> pour me transmettre toute information concernant les classements


MXSKY Montreux Trail Festival - 2021 : classement des 434 finishers
Place Nom Temps Cat. Club Sexe Clt/cat.
Place Nom Temps Cat. Club Sexe Clt/cat.
1 GOSSELIN Simon 2:58:49 SEM GA Haut Saonais M 3178
2 MARCHON Valentin 3:14:49 SEM M 3119
3 PERRIOT Jean Marc 3:15:17 SEM JEAN MARC PERRIOT M 3128
4 BONNET Geoffroy 3:16:35 SEM Running Planet Geneve M 3124
5 MOULIN Xavier 3:18:47 M1M CABV Martigny M 3057
6 DUPRE Christopher 3:19:09 SEM VMT M 3146
7 BOURGEOIS Theo 3:27:45 ESM Grand besancon Trail Acad M 3337
8 DESPReAUX Julien 3:32:06 SEM Running UNIL EPFL M 3126
9 ISLER Patrick 3:32:30 M2M Altmann Sports M 3072
10 GOHL Matthieu 3:32:53 SEM M 3114
11 WICHT Romain 3:34:02 SEM M 3469
12 SALAuN Bastien 3:34:51 SEM Patek Philippe S.A. M 3141
13 SHANNON Kevin 3:38:58 SEM M 3156
14 LAFAYE Celine 3:39:53 M1F TEAM PROVENCE ENDURANCE F 1ere F 3012
15 BAPTISTE Cyrille 3:40:50 M1M M 3037
16 SAUVAGET Arnaud 3:41:21 SEM M 3157
17 WILLEMIN Celien 3:42:54 SEM M 3164
18 ZANCHI Thierry 3:44:04 SEM M 3299
19 FLORET Hugo 3:44:29 ESM x TEAM VACHERESSE CHEVENO M 3003
20 GAILLE Laurent 3:46:19 M1M rivegauche/CP28 M 3194
21 GIRARD SOPPET Kevin 3:48:46 ESM X TEAM VACHERESSE CHEVENO M 3004
22 BOUILLOT Thomas 3:51:57 SEM Berthies sport M 3175
23 THEUNIS Gert 3:52:05 M1M ASICS / FCHA M 3051
24 BEN MAACHA Farid 3:52:12 M1M M 3049
25 BODERSKOV Max 3:53:43 SEM RunMax M 3153
26 GASSER Clara 3:54:03 SEF F 2 F 3100
27 CRETTENAND Theo 3:54:14 JUM Les Trotteurs M 3005
28 RISSE Hugo 3:56:37 JUM M 3007
29 REGNAULT Pierre Louis 3:57:29 SEM M 3300
30 POTOSKI Josef 3:58:35 M1M Hoka Tour M 3363
31 BAGNOUD Gerard 3:58:38 M2M AZ Sport M 3394
32 BREUILLE Raphael 3:59:27 SEM Ca mange pas d'pain M 3130
33 STALDER Julien 4:00:46 SEM M 3168
34 SABLe Pierre 4:00:58 SEM M 3287
35 MAILLARD Jerome 4:01:15 M1M Cloros team M 3206
36 NDJIKE Ulrich 4:02:03 SEM Ulrich Ndjike M 3539
37 DONNET Tobias 4:02:59 ESM Compressport Switzerland M 3541
38 BLANC Pierrick 4:03:32 SEM M 3171
39 BONADEO Basile 4:04:37 SEM Le bon blot M 3145
40 JORGE Alexandre 4:07:39 M1M M 3033
41 MARTIGNIER Christophe 4:08:09 SEM M 3308
41 BELLEFROID Maxime 4:08:09 SEM J'arriiiiiiive M 3170
43 JOTTERAND Stephane 4:08:52 SEM BBM M 3167
44 CORNET Regis 4:09:23 M1M Les Sorties Sympas M 3358
45 COLOMBANI Stephane 4:10:56 SEM S/L LA VIGILANTE DE FOUGE M 3301
46 DE TROYEZ Denis 4:11:24 SEM M 3546
47 LUGEON Sylvain 4:11:46 SEM M 3447
48 ABDILAH Taufiq 4:12:03 M1M DNH Hill Runners M 3058
49 STAGER Pascal 4:12:14 M2M M 3233
50 DEILLON Anthony 4:12:19 SEM CSVF M 3466
51 CENCEN Veronika 4:12:34 SEF F 3 F 3103
52 DEWAEL Yannick 4:14:07 M1M Betrail Team M 3208
53 MEUSY Fabien 4:14:37 SEM EGP M 3472
54 THOOFT Willem 4:16:14 SEM Willem T'Hooft M 3174
55 LONFAT Valentin 4:17:07 SEM M 3468
56 GEX FABRY Laurent 4:17:26 M3M CA dents du midi M 3244
57 DIMIC Danijel 4:17:34 SEM M 3158
58 BACH Geraldine 4:18:01 SEF F 4 F 3260
59 DUMOULIN Jessica 4:18:18 SEF DNH Lausanne F 5 F 3410
60 HELIAS Pierre Louis 4:18:53 SEM Pierre Louis HELIAS M 3133
61 SOLSONA Sergi 4:19:19 SEM M 3160
62 GEX Pauline 4:19:23 SEF F 3259
63 NAWRATIL Moritz 4:19:32 M1M Atletica 3V feat. RUN STR M 3221
64 DU PENHOAT Jean Baptiste 4:19:42 SEM TRT Monthey M 3305
65 NEWBOULD Hannah 4:20:51 SEF F 3415
66 FAURE Etienne 4:22:13 SEM Five M 3432
67 PASQUIER Geoffrey 4:22:18 SEM M 3149
68 RIVA Fabiano 4:23:15 M1M M 3042
69 BOURGUIGNON Lolo 4:23:37 M2M Batifer Tri and Trail M 3079
70 STACCOLI Luigi 4:23:42 M1M Alt. Finanza M 3029
71 DEMARET Frederik 4:23:45 M1M FCHA M 3050
72 PARISOT Philippe 4:23:47 M2M WGTN M 3077
73 NEYROLLES Philippe 4:24:02 M3M EVIAN OFF COURSE M 3398
74 BATAILLARD Didier 4:24:13 SEM M 3111
75 RUHTER Marisa 4:24:23 SEF F 3099
76 LAESSER Thierry 4:24:27 M2M DoleDeTopios [DoleM?n] M 3393
77 TISSOT Martin 4:24:51 SEM ASOP M 3177
78 STEIGER Gilles 4:24:58 SEM M 3279
79 GRIESSER Paul 4:26:31 SEM M 3462
80 MARQUES Damien 4:27:54 SEM Trailer des Aravis M 3142
81 FELLMANN Matthieu 4:28:05 JUM M 3339
81 VAUTHEY Maxime 4:28:05 ESM M 3182
83 RUYSSEN Gregoire 4:28:47 SEM M 3131
84 CHOUDHARY Shiraz 4:29:20 SEM M 3298
85 HENRARD Guillaume 4:30:12 SEM Vivement l'apero! M 3316
86 CAIMI Giulio 4:30:15 M1M M 3202
87 CABOUAT David 4:31:00 SEM NCS TraiLeman M 3173
88 CANOVA David 4:32:12 SEM Badass Baby Seal M 3283
89 SCALESIA Frederic 4:32:16 M1M www.differ ensemble.ch M 3477
90 HUBER Gregory 4:32:44 M1M M 3046
91 ESTRABAUT Maxime 4:33:15 SEM M 3144
92 MARCHAND Gregory 4:33:16 SEM M 3325
93 FERNANDEZ Carlos 4:33:55 M1M M 3048
94 BOVEY Nicolas 4:34:29 SEM M 3274
95 NGUYEN Audrey 4:34:37 SEF F 3547
96 LUPP Ole 4:34:41 M2M Basis Fahrradwarenladen B M 3239
97 RECEVEUR Sebastien 4:34:47 SEM COP'AIN DE TRAIL M 3285
98 BERTHOUD Nicolas 4:35:39 SEM M 3271
99 CRETTAZ Boris 4:35:53 SEM M 3289
100 LEU Maxence 4:36:05 SEM Speed demons M 3122
101 GEINOZ Alexandre 4:36:41 M1M M 3038
102 VUIBERT Tanguy 4:37:50 M1M M 3026
103 RAFANOMEZANTSOA Samy 4:39:20 M1M M 3031
104 GeNICOT Romain 4:39:22 SEM M 3317
105 LEJEUNE Nicolas 4:39:33 M1M M 3028
106 MILLOT Christian 4:39:58 SEM Caf Besancon M 3154
107 AGNELOT David 4:39:59 M1M TEAM TRAIL GAHS VESOUL M 3216
108 GAUTHIER Laure 4:40:57 SEF Lyon Mountain Trail F 3265
109 PARATORE Teo 4:41:09 SEM Tryverdon M 3117
110 MEURGUE Alexandre 4:41:14 SEM M 3121
110 ROUCHETTE Kevin 4:41:14 SEM M 3429
112 IRUS Johan 4:41:29 SEM M 3132
113 CORROCHANO Fanny 4:41:42 M1F O2 score F 3015
114 CORNIC Francois 4:42:05 M1M M 3201
115 LOUTAN Frederic 4:42:06 SEM M 3151
116 SIMONIN Jean Pierre 4:42:12 M2M M 3078
117 BUGNON Frederic 4:42:13 M1M M 3362
118 JAMINION Felix 4:42:18 SEM FragileTrail M 3314
119 DELAIT Olivier 4:43:07 M2M Un orval m'attend M 3235
120 MARTIN Patrick 4:43:12 M2M M 3236
121 POURCHAYRE Justine 4:43:16 SEF justine Pourchayre F 3249
122 ARROYO Jose Manuel 4:43:19 SEM M 3281
123 CAUDERAY Didier 4:43:24 SEM Team Francois sport M 3176
124 N?GELIN Luis 4:43:33 SEM M 3461
125 GUBY Raphael 4:44:01 SEM M 3522
126 BUCHER Yves 4:44:37 M1M TD & Company M 3047
127 PASQUIER Mickael 4:44:47 SEM M 3284
128 VINCENT Marc 4:45:10 M2M LES PRINCES EN FOULEES M 3081
129 JAQUIER Yannick 4:45:15 SEM M 3458
130 TuSCHER Julien 4:45:22 SEM M 3293
131 ULDRY Jean Daniel 4:45:38 M2M teysalpi M 3075
132 BARASCHI Constantin 4:45:53 M3M Cabinet Medical Baraschi M 3495
133 NOBLAT Alix 4:47:03 SEF F 3106
134 BUHAJEZUK Julien 4:47:27 SEM Leman Running M 3513
135 SIMARD Baptiste 4:48:04 SEM M 3162
136 DUCHOUD Sarah 4:48:30 M1F F 3191
137 GAMPER Roger 4:48:49 M1M M 3195
138 JONCOUR Romain 4:48:56 M1M M 3045
139 MOREL Jerome 4:49:00 SEM Romande Energie M 3163
140 PASQUIER Joel 4:49:17 M2M M 3381
141 PINOT Jean Emmanuel 4:49:19 SEM Team cebouste M 3332
142 ALEX Hurrell 4:49:30 SEM M 3123
143 AMIGOU Antoine 4:49:39 JUM SC ORVAULT ATHLETISME M 3338
143 DUNAND Pauline 4:49:39 M1F F 3186
145 POTEE Julien 4:49:58 SEM Lyon Mountain Trail M 3270
146 TAGLIANI Raphael 4:50:07 M1M M 3055
147 HUON Baptiste 4:50:35 SEM M 3139
148 NUSSBAUM Amael 4:51:11 ESM M 3336
149 EMMENEGGER Maic 4:51:13 M1M SevenSports M 3366
150 TICA Andra 4:51:23 SEF F 3247
151 PREMAND Adrien 4:52:47 SEM M 3420
152 MANHART Maurin 4:54:10 SEM maurin manhart M 3467
153 MEYER Tony 4:54:22 M2M Teysachaux M 3240
154 SCHNEEBERGER Benno 4:54:24 SEM Benno Schneeberger M 3456
155 BUFFAT Rebeca 4:55:14 SEF Rebeca Buffat F 3418
156 DONNET Johnny 4:55:15 M1M M 3040
157 VIOT Amelie 4:55:19 M1F F 3010
158 BRIAND David 4:58:15 SEM courir ? poisy M 3291
158 REY MILLET Sebastien 4:58:15 M1M M 3199
160 PALEY Mathieu 4:58:19 SEM CSPL M 3454
161 MULLER GAUDARD Aurore 4:58:41 SEF F 3544
162 RAPACZ Karol 4:58:46 SEM Karol Rapacz M 3292
163 BOURHIS Paul 4:59:10 SEM M 3460
164 GLARDON Patrice 4:59:12 M1M M 3016
165 PAUL MARTINS Felipe 4:59:17 SEM M 3449
166 MORISOD Jean Luc 4:59:44 SEM Pour le plaisir M 3277
167 BALLU Mathieu 4:59:55 M1M Amis de la Course M 3220
168 LAMBERT Simon 5:00:09 SEM Simon Lambert M 3329
169 SCHAEFFER Arthur 5:00:27 SEM M 3464
170 GAILLE Christian 5:00:50 M2M M 3229
171 SUTER Xavier 5:02:42 SEM Montreux Rennaz Cylisme M 3433
172 MUSSARD Remy 5:03:19 SEM M 3521
173 BELHIS Mohammed 5:04:43 M1M Mulhouse of Running M 3218
174 ROLLOT Christophe 5:06:22 M1M M 3361
175 BLOCH Jakob 5:06:35 M1M Jakob Bloch M 3059
176 SEILER Lionel 5:08:36 M1M Pirate les Cloches M 3488
177 MONOD Frederic 5:09:10 M2M Les princes en foulee M 3237
177 CAMPDORAS Karl 5:09:10 SEM M 3147
177 CRETTON Sebastien 5:09:10 M1M Team Catogne M 3053
180 BALSIGER Olivier 5:09:11 M2M Footing Club Lausanne M 3231
181 ROMAIN Joachim 5:09:31 SEM M 3180
181 ROMAIN Thomas 5:09:31 M1M CA Riviera M 3224
183 OKOTNIKOFF Alexis 5:09:37 SEM M 3155
183 LEFEBVRE Mike 5:09:37 M1M Decathlon Switzerland M 3222
185 VAN STARRENBURG Aletta 5:10:03 SEF NKBV F 3263
186 ROCHAT Anne Sophie 5:10:07 SEF F 3261
187 BARON Kevin 5:10:26 SEM Pecos M 3327
188 BRULHART Pierre 5:10:39 M1M M 3368
189 KERVAREC Sebastien 5:10:42 SEM M 3295
190 TONGIANI Claudio 5:11:08 M1M M 3545
191 PASQUIER Christophe 5:11:12 M1M M 3211
192 FAVRAT Geraldine 5:11:35 M1F F 3014
193 LACOUR Celiane 5:11:37 SEF Celiane Lacour F 3504
194 BERCERON Marie 5:12:04 SEF F 3404
195 KUTTA Adrian 5:12:52 SEM M 3512
196 SCHNEEBERGER Thierry 5:13:04 M1M M 3019
197 NEUHAUS Sully 5:13:10 M1M M 3192
198 RICKLI Quentin 5:13:28 SEM M 3450
199 LEYAT Stephane 5:13:34 M1M M 3352
200 BROHARD Pierre 5:14:14 SEM M 3134
201 FATTEBERT Allan 5:14:43 SEM Asso Yverdon M 3268
202 ZERMATTEN David 5:14:44 SEM Boxing club Dents du midi M 3278
203 DUBE Thando 5:15:05 M2M Run and Freedom M 3232
204 DUC Blaise 5:15:36 M3M Footing Club Lausanne M 3241
205 OLIVA Marc 5:15:46 SEM M 3286
206 WITSCHI Michael 5:15:58 M1M M 3489
207 GILLET Paul 5:16:09 SEM Team Cebouste M 3282
208 SINGH Karuna Sindhu 5:16:32 M1M FCM MULHOUSE 1983 M 3372
209 BRuCKNER Daniel 5:17:28 M2M M 3390
210 VERSTAEN Sebastien 5:17:47 SEM RST Ath M 3310
211 DORMOND MOREILLON Pascal 5:18:04 M2M M 3387
212 GEERTSE Edward 5:18:18 SEM TEAM Ultra run.nl M 3523
213 DENTAND Sebastien 5:18:22 M1M RUN4BEER M 3205
214 PASTRANA Nicolas 5:18:41 SEM Apero time!!! M 3540
215 GAZANION Eric 5:18:57 SEM M 3313
216 SIDLER Luzius 5:19:19 SEM M 3280
217 MICHEL Christophe 5:19:23 M2M M 3377
218 BOURNOUD Alain 5:19:35 M1M M 3347
219 PERRIARD Laurent 5:20:08 M2M M 3395
220 BALULA Mickael 5:20:49 SEM M 3294
221 FLEURISSON Christophe 5:22:05 M1M M 3209
222 LINYER Louis 5:22:33 SEM Tango 53 M 3137
223 LINYER Baptiste 5:22:34 SEM M 3445
224 BEAUPAIN Margaux 5:22:54 SEF Flow Experience F 3403
225 CAUCHET Audrey 5:23:11 SEF F 3101
226 DUBOSSON Fabien 5:23:30 SEM M 3324
227 GHIELMINI Didier 5:23:42 M2M M 3234
228 DENAIS Jean Pierre 5:23:59 M3M vorosses caf leman M 3246
229 NEUFFER Corentin 5:24:07 SEM Arrow M 3427
230 NOIRFALISSE Anne 5:24:36 M1F FloW Experience F 3341
231 MENDES Anthony 5:24:37 SEM M 3322
231 BLOCH Pierre 5:24:37 M1M pierre bloch M 3217
233 CARIOU Romain 5:26:03 SEM EDIFEA M 3302
234 BENITO Ricardo 5:26:04 SEM M 3143
235 PFEIFFER Alexander 5:26:07 SEM M 3288
236 MORISOD Stephane 5:27:18 SEM M 3423
237 COMA Sebastien 5:27:47 M1M Trail Training team M 3043
238 DA SILVA GOMES Ricardo 5:28:16 SEM Locomoteam M 3520
239 LENFANT Sylvain 5:28:34 M1M Gex M 3197
240 MELICH Romain 5:28:40 SEM M 3326
241 RAPACZ Wioleta 5:29:00 SEF F 3499
242 BERTHIER Loris 5:29:02 SEM M 3422
243 LETORT Anthony 5:29:16 M1M M 3210
244 SCH?FER Roger 5:29:28 M2M LAC TVU M 3228
245 DOTTRENS Julien 5:30:21 M1M M 3369
246 PACIFICO Massimo 5:31:00 SEM M 3109
247 ESCALIER Thomas 5:31:05 SEM M 3320
248 BARDARY Vivien 5:31:12 SEM Trail maniacs M 3161
249 JORe Thibaud 5:31:20 SEM M 3303
250 DUBOIS Jean 5:31:42 M1M tri team pully M 3198
251 ESTOUR Gregoire 5:31:50 SEM Romande Energie M 3321
252 CARPENTIER Thierry 5:32:06 M1M M 3486
253 PIROLLEY Dom 5:32:23 M1M team FREEDOM M 3054
254 JENNI Nicolas 5:32:47 SEM M 3452
255 PITTET Amy 5:33:02 SEF TRYverdon F 3252
256 PICHONNAT Florian 5:33:13 SEM M 3506
257 JAFFEUX Robin 5:33:15 SEM NCS TRAILEMAN M 3457
258 BREITENMOSER Sandrine 5:33:43 M1F F 3188
259 CORADO MORALES Juan 5:33:49 SEM M 3297
259 MORALES FERNANDEZ Miriam 5:33:49 SEF F 3251
261 LUQUE Carol 5:34:29 SEF La Penul Runners F 3407
262 COSTE Astrid 5:34:30 SEF F 3409
263 THIEBAUT Arnaud 5:35:12 SEM M 3165
264 VOUGA Manon 5:35:26 SEF F 3533
264 MOUTINOT Berenice 5:35:26 SEF Les dindes sionaise F 3505
264 TRIOLO Julie 5:35:26 SEF F 3503
267 RISSER Adrien 5:35:39 SEM M 3463
268 COLUSSI Adrien 5:36:10 SEM NCS TRAILeMAN M 3428
269 ARNHULT Mia 5:36:28 M2F Lotta Wallin F 3227
270 ALIX Nicolas 5:37:02 SEM Team Playmobil M 3290
271 ALLEMANN Ruedi 5:37:16 M3M M 3087
272 SAINTOT Barbara 5:37:32 SEF Team Freedom F 3105
273 KINCH Adrian 5:37:51 SEM M 3127
274 DE GENNARO Chloe 5:38:05 SEF F 3413
275 DOME Maxime 5:38:12 SEM J'arriiiiiiiiive M 3169
276 TIXIER Frederic 5:38:28 M2M M 3386
277 BAUDEAU Julien 5:38:32 M1M M 3207
278 WEILER Hoel 5:40:42 SEM hoel weiler M 3296
278 BERNARD Mathieu 5:40:42 SEM M 3331
280 HAUTOY Francis 5:40:43 SEM M 3448
281 LANG Katharina 5:40:50 SEF F 3248
282 MOUGEOT Nicolas 5:41:05 SEM M 3315
283 POLLEY Maria 5:41:48 SEF F 3416
284 MEYNET Alain 5:42:09 M2M M 3083
285 GENILLOUD DUBEY Aline 5:42:18 M1F Cariviera F 3184
286 BIRRAUX Joseph 5:42:26 M3M M 3399
287 CHARAZAC Yann 5:42:34 SEM M 3311
288 CHOLLET Philippe 5:43:14 M1M Velo Club Echallens M 3203
289 LEEMANS Els 5:43:21 SEF Cristal sport F 3264
290 RUSTERHOLZ Olivier 5:43:46 SEM M 3459
291 LUISIER Cedric 5:44:25 M1M La Foulee Saillonintze M 3215
292 DUBOUX Gilles 5:45:09 SEM M 3120
292 BOURGEOIS Gael 5:45:09 M1M Footing Club Lausanne M 3365
294 GROUX Martial 5:45:50 SEM Team AEP M 3304
295 WOLFINGER Tatiana 5:47:58 M1F olivier wolfinger F 3345
296 DANEAU Nicolas 5:48:29 M1M M 3214
297 FOUCHARD Frederic 5:49:03 M2M THONON AC M 3080
298 BAKKER Eliane 5:49:18 SEF F 3406
299 FRAGNIeRE Pascal 5:49:21 M2M M 3383
300 TRIFONI Vincent 5:49:37 SEM M 3323
301 MACCHI Anouck 5:50:07 M1F F 3346
301 MACCHI Christophe 5:50:07 M2M M 3388
303 FEDI Sylvie 5:50:27 M2F Team Ecotrail F 3062
304 JASON Wisnowski 5:50:35 SEM M 3136
305 LAFFITTE Emmanuel 5:50:44 M2M CAF Reignier M 3389
306 WARPELIN Herve 5:50:48 M1M New Concept Sports M 3367
307 DAMY Pierre Clement 5:51:33 SEM M 3273
308 CHALLANDE Ariane 5:51:57 M2F Ariane CHALLANDE F 3491
309 MORO Maude 5:52:23 SEF F 3417
310 CARMINATI Alexis 5:54:03 SEM Raid defi sapeurs pompier M 3516
311 NOSARI Laurent 5:55:09 M1M TEAM ALTRA RED M 3355
312 RIGOURD Benoit 5:55:20 SEM M 3140
313 MARQUIS Catherine 5:57:06 M2F T R T Monthey F 3063
314 FAICT Celine 5:57:07 SEF F 3096
314 BORGOO Caroline 5:57:07 SEF F 3095
316 PETIT Frederic 5:57:15 M1M Frederic Petit M 3044
317 PELISSIER Laurent 5:58:07 M1M M 3349
317 STAUBLI Werner 5:58:07 M1M MR Stettfurt M 3480
319 NOIRFALISSE Gerald 5:59:26 M1M M 3485
320 BENAY Simon 5:59:35 SEM M 3312
321 BELLON Sylvie 6:00:18 M2F T R T Monthey F 3373
322 DALLA Renato 6:00:48 M1M M 3212
323 HOYLAND Paul 6:01:59 M1M Geneva runners M 3356
324 KLEEBERG Marjorie 6:02:03 M1F F 3185
325 GUYOT Claire 6:02:55 SEF Mat'Trail Coaching F 3266
326 ZAPATA SCHMIDT Monica 6:03:27 M1F NCSTRAILeMAN F 3344
326 BEAUSIRE Sarah 6:03:27 SEF F 3093
328 GUNDEL Isabelle 6:03:48 M1F F 3189
329 AMIGOU Jean Philippe 6:05:29 M2M SC ORVAULT (FRANCE) M 3230
330 MARTINAL CAGLIESI Christelle 6:05:31 SEF F 3257
331 VAN DER LINDE Monique 6:06:04 SEF Monique van der Linde F 3256
331 DE KRUIJK Esther 6:06:04 SEF F 3500
333 GOUWENS Marco 6:06:24 M2M LGN_Trailovation M 3082
334 KOERS Willeke 6:06:33 M1F F 3474
335 VOUILLOZ Anne Catherine 6:08:50 M2F CABV Martigny/Team Hoka S F 3374
336 BeTRISEY Anne 6:09:06 SEF F 3108
337 CAPRI Julien 6:09:34 SEM M 3431
338 GULLHAMN Esbjorn 6:09:36 M1M Feuerwehr Dietlikon M 3370
339 PINOT Marie Cecile 6:10:28 SEF Team cebouste F 3267
340 MACIAS Manuel 6:11:16 M3M M 3242
341 D?AZ GONZALEZ Jose Luis 6:11:52 SEM M 3455
342 RUSCIO Cedric 6:12:36 M2M Butterfly Runner's M 3376
343 NEVES PINTO OLIVEIRA DA COSTA Ana 6:14:42 ESF SportXX Ryffel Running F 3334
344 SONNEVELD Naomi 6:15:26 SEF F 3097
345 DUPONT David 6:17:16 SEM M 3509
346 SAVOY Charly 6:19:13 M3M M 3090
347 BRILLANT Helene 6:20:30 M2F ASPTT F 3528
348 BUERGI Adrian 6:21:14 M3M DsischtiJogger M 3243
348 HERSCHE Chantal 6:21:14 SEF Dsischtijogger F 3411
350 POINTET Alain 6:23:21 M1M Au Taquet! M 3022
351 ECOEUR Christel 6:23:50 M1F F 3525
352 SAUVEUR Laurent 6:23:52 M1M Laurent Sauveur M 3359
353 MORAND Yannick 6:24:51 SEM AbricoTeam M 3515
353 DUBAS MAYE Michelle 6:24:51 M1F BeeHeidi F 3187
355 COMBA Fanny 6:25:29 SEF Crossfit Payerne F 3405
355 PLANCHEREL Arnaud 6:25:29 SEM M 3436
357 MASINI Kevin 6:25:34 SEM Footing Club Lausanne M 3517
358 BERGOT David 6:25:56 SEM M 3439
358 BERGOT Mathieu 6:25:56 SEM Mathieu BERGOT M 3440
360 PLATTEAU Loic 6:26:34 SEM Ca mange pas de pain M 3438
361 GUYOT Frederic 6:26:35 M2M M 3070
362 MORO Christian 6:28:16 M1M M 3371
363 HABERTHUR David 6:28:17 M2M TRIVIERA M 3379
364 VALLOTTON Jerome 6:28:32 M1M M 3348
365 CHARA Amine 6:28:51 SEM M 3330
366 MINARY Tom 6:29:55 ESM Lettres Modernes M 3001
367 ROHRBASSER Julien 6:30:21 M1M M 3193
368 MUDIMISI Cedric 6:31:58 SEM Cedric Mudimisi M 3451
369 PAHUD Yolande 6:32:34 SEF F 3107
370 REYNARD Pierre 6:32:38 M3M Portail Nature M 3397
371 WINS Damien 6:32:52 M1M M 3354
372 AIRES Jose 6:32:53 M2M M 3073
373 CLAIRON Stephanie 6:34:01 M2F stephanie clairon F 3492
374 SAVCHENKO Volodymyr 6:34:32 SEM N/A M 3536
374 DE JONG Sandra 6:34:32 SEF F 3531
376 ALLEMAND Yves 6:35:22 M1M NaYa Team M 3483
376 ALLEMAND Nicole 6:35:22 SEF NaYa Team F 3498
378 FAVEZ Tatiana 6:35:46 M1F TRT Monthey F 3013
379 POTTER Sara 6:35:52 SEF Team Magenpie F 3401
379 PLAJA Joel 6:35:52 SEM Team Magenpie M 3426
381 SAHRAOUI Laid 6:36:22 M1M Family Fun Trail M 3213
382 THULKANAM Michelle 6:36:23 M1F Michelle Thulkanam F 3475
383 EIDT Thiago 6:38:15 M1M Thiago EIDT M 3364
384 OTTO Christopher 6:41:34 SEM UTMB_or_bust M 3510
385 LUIGI Caiffa 6:43:28 SEM M 3441
385 TARRONI Alesssandro 6:43:28 SEM M 3442
387 PRANTS Heiki 6:44:24 M2M Heiki Prants M 3067
388 NICOLLE Anthony 6:44:52 SEM Anthony Nicolle M 3159
389 MORLAIX Sylvain 6:44:53 M3M foulees de st germain en M 3089
390 PRANTS Jelena 6:44:59 M2F V?ru Suusaklubi F 3225
391 GMEINER Marc 6:46:37 SEM CrossFit Ortenberg M 3470
391 GOEPPERT Thomas 6:46:37 SEM CrossFit Ortenberg M 3471
393 CORBAT Yves 6:46:40 M3M Team Ecotrail Geneve M 3496
394 ETHENOZ Philippe 6:46:41 M2M CCAP M 3066
395 MULLEN Michael 6:50:29 SEM M 3118
396 BUERGI Hilde 6:50:43 M2F DsischtiJogger F 3490
397 BARRES Ludovic 6:51:29 M2M Ludovic BARRES M 3384
398 MONPEYSSEN Jimmy 6:52:40 SEM Jimmy MONPEYSSEN M 3434
398 MONPEYSSEN Kevin 6:52:40 SEM M 3435
400 GAMBLE Christopher 6:58:54 M1M M 3482
401 FAVRE Quentin 6:59:15 SEM Leman Running M 3537
401 FAVRE Jessica 6:59:15 SEF F 3532
403 FILIPETTO Patrick 6:59:48 M1M M 3200
404 OSWALD Margaux 7:00:25 SEF F 3497
405 AUQUIER Alexandre 7:00:26 SEM M 3424
406 DORRELL Paul 7:00:54 M2M M 3382
407 WENGER Bernhard 7:02:07 M3M Les Trotteurs Fully M 3245
408 JURIC Mathieu 7:02:13 SEM Mathieu Juric M 3272
409 VAN DE VEGTE Wietse 7:02:14 M1M M 3484
409 MERWE Richard 7:02:14 M2M M 3493
411 COADOU Kevin 7:02:24 SEM Solidaires En Peloton M 3328
412 TANGE Claire 7:02:29 SEF Claire Tange F 3414
413 EIDA Alex 7:03:54 SEM UTMB_or_bust M 3511
414 REITZ Nelson 7:04:26 SEM M 3421
414 KIM Taijin 7:04:26 M1M M 3018
416 MUHECH MEDRANO Amira 7:09:12 SEF Garnacha Social Club F 3402
417 LUTZELSCHWAB Delphine 7:11:43 SEF Leman running F 3501
418 VERISSIMO Santiago 7:21:20 SEM Locoteam M 3519
419 MARTIN David 7:25:40 SEM M 3306
420 MACAULAY Nanna 7:27:35 M1F F 3473
421 TROXLER Jean Martin 7:31:56 M2M M 3380
422 BLANCHARD Jennifer 7:36:40 SEF Blanchard F 3253
423 WYSS Charlotte 7:37:41 SEF F 3502
424 DUPUIS Valentine 7:44:39 SEF Xpulse F 3091
425 VAN WIJK Simone 7:47:13 SEF Fortevital F 3258
425 FoLLMI Jonas 7:47:13 SEM ForteVital M 3319
427 SIDOTI Maurizio 7:54:41 SEM M 3275
428 WALLIN Lotta 8:05:16 M2F F 3375
429 ROMAIN Philippe 8:09:07 M3M M 3179
430 BUSCHI Mara 8:20:16 M1F MM Trening F 3524
431 WINKELMANN Eric 8:21:04 M3M Seniors de Coubertin M 3529
432 WALKER Grant 8:21:37 M1M M 3526
433 AEBY Francois 8:33:24 M3M seniors de Coubertin M 3086
434 CHIARADIA Michel 8:46:59 M3M Seniors de Coubertin M 3084


ReferencementCe site est listé dans la catégorie Sport : Sports extrêmes Dictionnaire
| Accueil | La Réunion  Vue du ciel | Météo | Cyclones | Volcan | Cirques de Mafate , Cilaos , Salazie | Photos Randonnées | Randonnées Réunion: Randos Espiègle , Courses montagne | Diagonale des Fous |  Marathon des Sables | Voyages Les stats du site | Fonds écran | Plan du site | Blog de runraid | Galerie photos Sport Réunion |